createdAt,value
2022-11-28T00:01:41.310Z,100359.97
2022-11-28T00:04:08.997Z,100346.13
2022-11-28T00:06:40.840Z,100349.66
2022-11-28T00:09:08.360Z,100336.63
2022-11-28T00:11:35.076Z,100335.06
2022-11-28T00:14:01.678Z,100354.13
2022-11-28T00:16:28.289Z,100362.09
2022-11-28T00:18:55.131Z,100346.44
2022-11-28T00:21:22.850Z,100318.13
2022-11-28T00:23:50.343Z,100340.47
2022-11-28T00:26:21.107Z,100329.09
2022-11-28T00:28:48.293Z,100315.22
2022-11-28T00:31:26.824Z,100295.47
2022-11-28T00:33:53.835Z,100308.47
2022-11-28T00:36:21.477Z,100316.25
2022-11-28T00:38:48.414Z,100298.47
2022-11-28T00:41:23.054Z,100301.91
2022-11-28T00:43:50.731Z,100310.47
2022-11-28T00:46:18.858Z,100304.41
2022-11-28T00:48:45.713Z,100323.59
2022-11-28T00:51:14.980Z,100318.34
2022-11-28T00:53:43.326Z,100317.44
2022-11-28T00:56:12.844Z,100328.78
2022-11-28T00:58:40.270Z,100322.63
2022-11-28T01:01:14.633Z,100325.38
2022-11-28T01:03:42.144Z,100331.59
2022-11-28T01:06:10.380Z,100330.78
2022-11-28T01:08:37.356Z,100309.94
2022-11-28T01:11:10.389Z,100326.19
2022-11-28T01:13:36.923Z,100326.06
2022-11-28T01:16:03.863Z,100311.31
2022-11-28T01:18:30.467Z,100331.44
2022-11-28T01:20:57.146Z,100305.47
2022-11-28T01:23:23.819Z,100312.41
2022-11-28T01:25:50.473Z,100306.44
2022-11-28T01:28:16.990Z,100290.19
2022-11-28T01:30:43.545Z,100305.63
2022-11-28T01:33:10.116Z,100312.53
2022-11-28T01:35:36.680Z,100309.94
2022-11-28T01:38:03.280Z,100303.91
2022-11-28T01:40:29.939Z,100292.47
2022-11-28T01:42:56.564Z,100288.09
2022-11-28T01:45:27.965Z,100278.38
2022-11-28T01:47:58.743Z,100252.25
2022-11-28T01:50:26.799Z,100278.19
2022-11-28T01:52:57.715Z,100281.78
2022-11-28T01:55:28.595Z,100268.69
2022-11-28T01:57:56.131Z,100255.59
2022-11-28T02:00:22.888Z,100235.94
2022-11-28T02:03:05.557Z,100229.09
2022-11-28T02:05:32.766Z,100247.97
2022-11-28T02:07:59.623Z,100246.13
2022-11-28T02:10:56.742Z,100246.13
2022-11-28T02:13:45.376Z,100242.50
2022-11-28T02:16:20.908Z,100240.72
2022-11-28T02:19:08.881Z,100239.88
2022-11-28T02:21:49.529Z,100231.06
2022-11-28T02:25:14.550Z,100230.09
2022-11-28T02:27:55.227Z,100246.78
2022-11-28T02:30:29.198Z,100244.31
2022-11-28T02:33:03.054Z,100241.72
2022-11-28T02:35:51.345Z,100236.38
2022-11-28T02:38:50.133Z,100232.88
2022-11-28T02:41:38.667Z,100229.22
2022-11-28T02:44:11.186Z,100226.50
2022-11-28T02:46:58.939Z,100205.09
2022-11-28T02:49:38.415Z,100222.09
2022-11-28T02:52:10.261Z,100225.56
2022-11-28T02:54:39.643Z,100219.50
2022-11-28T02:57:06.358Z,100222.06
2022-11-28T02:59:38.630Z,100222.03
2022-11-28T03:02:13.319Z,100217.72
2022-11-28T03:05:05.729Z,100209.03
2022-11-28T03:08:01.172Z,100213.38
2022-11-28T03:10:46.355Z,100215.09
2022-11-28T03:13:15.857Z,100216.94
2022-11-28T03:16:11.202Z,100219.59
2022-11-28T03:18:50.771Z,100191.00
2022-11-28T03:21:32.969Z,100218.63
2022-11-28T03:24:30.014Z,100212.47
2022-11-28T03:27:08.835Z,100200.09
2022-11-28T03:29:48.764Z,100203.63
2022-11-28T03:32:22.932Z,100205.41
2022-11-28T03:34:56.526Z,100202.84
2022-11-28T03:37:33.952Z,100198.59
2022-11-28T03:40:05.597Z,100195.19
2022-11-28T03:42:40.496Z,100184.84
2022-11-28T03:45:25.055Z,100188.19
2022-11-28T03:47:59.414Z,100188.09
2022-11-28T03:50:33.981Z,100182.81
2022-11-28T03:53:05.983Z,100186.41
2022-11-28T03:55:39.817Z,100175.91
2022-11-28T03:58:09.336Z,100178.44
2022-11-28T04:00:42.574Z,100174.06
2022-11-28T04:03:24.494Z,100146.53
2022-11-28T04:06:02.444Z,100167.09
2022-11-28T04:09:03.586Z,100165.25
2022-11-28T04:11:45.117Z,100167.09
2022-11-28T04:14:29.471Z,100159.19
2022-11-28T04:17:10.222Z,100160.97
2022-11-28T04:19:45.272Z,100155.66
2022-11-28T04:22:27.305Z,100156.50
2022-11-28T04:25:10.159Z,100149.56
2022-11-28T04:27:44.134Z,100146.19
2022-11-28T04:30:12.540Z,100140.28
2022-11-28T04:32:46.324Z,100143.81
2022-11-28T04:35:20.350Z,100123.09
2022-11-28T04:37:49.215Z,100150.72
2022-11-28T04:40:17.256Z,100051.59
2022-11-28T04:42:55.868Z,100138.44
2022-11-28T04:45:29.439Z,100112.50
2022-11-28T04:47:56.426Z,100134.00
2022-11-28T04:50:25.627Z,100141.91
2022-11-28T04:52:57.035Z,100139.38
2022-11-28T04:55:42.260Z,100141.97
2022-11-28T04:58:16.365Z,100142.00
2022-11-28T05:00:44.300Z,100136.03
2022-11-28T05:03:11.270Z,100142.00
2022-11-28T05:05:51.491Z,100135.94
2022-11-28T05:08:19.024Z,100136.72
2022-11-28T05:10:46.715Z,100140.00
2022-11-28T05:13:13.759Z,100130.25
2022-11-28T05:15:40.337Z,100129.13
2022-11-28T05:18:06.942Z,100110.97
2022-11-28T05:20:34.401Z,100130.66
2022-11-28T05:23:00.937Z,100116.00
2022-11-28T05:25:27.509Z,100124.78
2022-11-28T05:27:54.055Z,100118.59
2022-11-28T05:30:20.759Z,100125.38
2022-11-28T05:32:47.746Z,100119.16
2022-11-28T05:35:14.356Z,100124.41
2022-11-28T05:37:41.098Z,100104.03
2022-11-28T05:40:08.328Z,100128.16
2022-11-28T05:42:35.892Z,100121.16
2022-11-28T05:45:03.226Z,100122.22
2022-11-28T05:47:31.789Z,100110.19
2022-11-28T05:49:58.489Z,100114.53
2022-11-28T05:52:25.095Z,100121.63
2022-11-28T05:54:51.602Z,100123.22
2022-11-28T05:57:18.187Z,100131.94
2022-11-28T05:59:45.180Z,100121.72
2022-11-28T06:02:12.029Z,100110.72
2022-11-28T06:04:41.722Z,100123.63
2022-11-28T06:07:08.752Z,100105.47
2022-11-28T06:09:35.329Z,100119.25
2022-11-28T06:12:02.071Z,100116.47
2022-11-28T06:14:28.695Z,100121.50
2022-11-28T06:16:55.319Z,100088.66
2022-11-28T06:19:21.916Z,100129.25
2022-11-28T06:21:50.941Z,100117.06
2022-11-28T06:24:17.909Z,100122.38
2022-11-28T06:26:44.529Z,100095.72
2022-11-28T06:29:11.069Z,100109.44
2022-11-28T06:31:37.657Z,100116.25
2022-11-28T06:34:04.275Z,100110.88
2022-11-28T06:36:31.009Z,100117.06
2022-11-28T06:38:57.779Z,100116.09
2022-11-28T06:41:24.371Z,100119.53
2022-11-28T06:43:51.028Z,100082.28
2022-11-28T06:46:20.587Z,100120.94
2022-11-28T06:48:48.734Z,100100.78
2022-11-28T06:51:16.271Z,100107.56
2022-11-28T06:53:43.246Z,100101.56
2022-11-28T06:56:14.042Z,100103.34
2022-11-28T06:58:41.630Z,100113.06
2022-11-28T07:01:11.916Z,100117.53
2022-11-28T07:03:39.475Z,100094.38
2022-11-28T07:06:06.968Z,100128.91
2022-11-28T07:08:34.473Z,100118.72
2022-11-28T07:11:21.966Z,100134.16
2022-11-28T07:13:49.750Z,100104.78
2022-11-28T07:16:19.960Z,100134.91
2022-11-28T07:18:47.054Z,100137.63
2022-11-28T07:21:14.813Z,100137.91
2022-11-28T07:23:42.797Z,100139.72
2022-11-28T07:26:11.355Z,100141.00
2022-11-28T07:28:38.144Z,100141.06
2022-11-28T07:31:07.625Z,100136.56
2022-11-28T07:33:35.351Z,100132.25
2022-11-28T07:36:08.190Z,100118.47
2022-11-28T07:38:34.826Z,100110.66
2022-11-28T07:41:12.987Z,100128.28
2022-11-28T07:43:40.814Z,100142.84
2022-11-28T07:46:09.409Z,100134.88
2022-11-28T07:48:36.366Z,100135.50
2022-11-28T07:51:08.170Z,100133.31
2022-11-28T07:53:35.434Z,100141.59
2022-11-28T07:56:06.977Z,100152.19
2022-11-28T07:58:35.368Z,100139.06
2022-11-28T08:01:12.380Z,100117.28
2022-11-28T08:03:38.885Z,100154.31
2022-11-28T08:06:06.545Z,100117.03
2022-11-28T08:08:33.608Z,100139.25
2022-11-28T08:11:02.162Z,100147.84
2022-11-28T08:13:29.353Z,100132.19
2022-11-28T08:15:56.006Z,100133.88
2022-11-28T08:18:23.156Z,100130.38
2022-11-28T08:20:50.437Z,100134.81
2022-11-28T08:23:16.986Z,100136.59
2022-11-28T08:25:43.569Z,100133.91
2022-11-28T08:28:10.346Z,100137.41
2022-11-28T08:30:36.900Z,100138.38
2022-11-28T08:33:04.077Z,100120.34
2022-11-28T08:35:31.219Z,100142.66
2022-11-28T08:38:01.753Z,100116.69
2022-11-28T08:40:28.971Z,100111.25
2022-11-28T08:42:55.907Z,100119.06
2022-11-28T08:45:22.535Z,100135.34
2022-11-28T08:47:49.132Z,100113.75
2022-11-28T08:50:15.860Z,100119.47
2022-11-28T08:52:42.391Z,100122.91
2022-11-28T08:55:09.299Z,100134.84
2022-11-28T08:57:35.852Z,100122.56
2022-11-28T09:00:02.551Z,100121.59
2022-11-28T09:02:29.125Z,100122.56
2022-11-28T09:04:55.717Z,100121.66
2022-11-28T09:07:22.376Z,100115.28
2022-11-28T09:09:49.264Z,100122.31
2022-11-28T09:12:16.269Z,100126.84
2022-11-28T09:14:42.829Z,100136.41
2022-11-28T09:17:09.479Z,100140.03
2022-11-28T09:19:36.117Z,100139.72
2022-11-28T09:22:02.626Z,100138.69
2022-11-28T09:24:29.183Z,100148.69
2022-11-28T09:26:55.763Z,100144.91
2022-11-28T09:29:22.409Z,100149.81
2022-11-28T09:31:49.021Z,100149.72
2022-11-28T09:34:15.907Z,100143.38
2022-11-28T09:36:42.461Z,100143.22
2022-11-28T09:39:09.151Z,100139.56
2022-11-28T09:42:13.753Z,100139.41
2022-11-28T09:45:07.161Z,100130.59
2022-11-28T09:47:37.218Z,100133.13
2022-11-28T09:50:15.380Z,100125.13
2022-11-28T09:53:12.965Z,100123.31
2022-11-28T09:55:54.580Z,100119.72
2022-11-28T09:58:58.992Z,100121.25
2022-11-28T10:01:34.407Z,100114.03
2022-11-28T10:04:04.043Z,100112.94
2022-11-28T10:07:09.382Z,100115.63
2022-11-28T10:09:46.627Z,100106.91
2022-11-28T10:12:39.106Z,100121.59
2022-11-28T10:15:11.640Z,100118.97
2022-11-28T10:17:59.456Z,100092.25
2022-11-28T10:20:32.192Z,100110.25
2022-11-28T10:23:16.729Z,100113.50
2022-11-28T10:25:57.128Z,100108.16
2022-11-28T10:28:31.659Z,100106.63
2022-11-28T10:31:06.913Z,100104.50
2022-11-28T10:33:41.759Z,100104.09
2022-11-28T10:36:16.392Z,100078.56
2022-11-28T10:38:43.834Z,100101.66
2022-11-28T10:41:20.791Z,100097.69
2022-11-28T10:43:57.593Z,100094.50
2022-11-28T10:46:46.852Z,100108.31
2022-11-28T10:49:35.213Z,100105.41
2022-11-28T10:52:06.795Z,100104.63
2022-11-28T10:55:07.483Z,100097.53
2022-11-28T10:57:43.421Z,100088.41
2022-11-28T11:00:18.376Z,100091.53
2022-11-28T11:02:50.830Z,100088.59
2022-11-28T11:05:20.600Z,100085.78
2022-11-28T11:08:26.917Z,100087.28
2022-11-28T11:11:24.123Z,100079.91
2022-11-28T11:14:01.975Z,100079.59
2022-11-28T11:16:49.295Z,100073.06
2022-11-28T11:19:36.858Z,100070.09
2022-11-28T11:22:12.517Z,100064.59
2022-11-28T11:24:39.063Z,100069.59
2022-11-28T11:27:18.346Z,100069.41
2022-11-28T11:29:48.158Z,100043.50
2022-11-28T11:32:23.643Z,100063.78
2022-11-28T11:34:50.633Z,100066.13
2022-11-28T11:37:19.418Z,100045.44
2022-11-28T11:39:51.656Z,100073.00
2022-11-28T11:42:27.348Z,100063.03
2022-11-28T11:44:54.484Z,100063.34
2022-11-28T11:47:40.893Z,100070.44
2022-11-28T11:50:17.546Z,100042.53
2022-11-28T11:52:44.537Z,100061.09
2022-11-28T11:55:15.911Z,100067.03
2022-11-28T11:57:52.802Z,100062.31
2022-11-28T12:00:22.469Z,100058.91
2022-11-28T12:02:56.909Z,100047.06
2022-11-28T12:06:12.656Z,100037.59
2022-11-28T12:08:39.455Z,100064.09
2022-11-28T12:11:11.106Z,100051.34
2022-11-28T12:13:37.740Z,100072.44
2022-11-28T12:16:32.029Z,100075.38
2022-11-28T12:19:04.536Z,100070.22
2022-11-28T12:21:50.695Z,100061.03
2022-11-28T12:24:27.076Z,100065.31
2022-11-28T12:27:11.915Z,100063.72
2022-11-28T12:30:16.235Z,100057.41
2022-11-28T12:33:11.927Z,100058.56
2022-11-28T12:35:41.594Z,100055.44
2022-11-28T12:38:33.715Z,100050.72
2022-11-28T12:41:52.791Z,100049.56
2022-11-28T12:44:30.595Z,100048.25
2022-11-28T12:47:11.391Z,100031.25
2022-11-28T12:49:59.143Z,100049.41
2022-11-28T12:53:00.005Z,100042.13
2022-11-28T12:55:44.459Z,100047.28
2022-11-28T12:58:16.720Z,100033.47
2022-11-28T13:00:58.495Z,100027.41
2022-11-28T13:03:25.125Z,100043.63
2022-11-28T13:06:17.103Z,100041.38
2022-11-28T13:09:29.438Z,100029.66
2022-11-28T13:12:23.012Z,100045.53
2022-11-28T13:15:08.580Z,100013.50
2022-11-28T13:17:37.725Z,100035.97
2022-11-28T13:20:16.374Z,100040.28
2022-11-28T13:22:59.705Z,100037.03
2022-11-28T13:25:44.947Z,100041.59
2022-11-28T13:28:17.634Z,100046.25
2022-11-28T13:30:52.949Z,100047.41
2022-11-28T13:34:07.810Z,100043.84
2022-11-28T13:40:14.684Z,100043.56
2022-11-28T13:43:04.029Z,100038.63
2022-11-28T13:45:42.237Z,100041.56
2022-11-28T13:48:57.625Z,100038.94
2022-11-28T13:51:32.708Z,100018.38
2022-11-28T13:54:18.193Z,100004.50
2022-11-28T13:56:46.360Z,100023.22
2022-11-28T13:59:20.085Z,100002.59
2022-11-28T14:01:55.905Z,100035.44
2022-11-28T14:04:22.748Z,100031.03
2022-11-28T14:07:01.118Z,100031.09
2022-11-28T14:09:44.870Z,100031.91
2022-11-28T14:13:02.609Z,100025.59
2022-11-28T14:15:53.976Z,100038.69
2022-11-28T14:18:57.136Z,100038.75
2022-11-28T14:21:40.061Z,100013.91
2022-11-28T14:24:06.603Z,100032.50
2022-11-28T14:26:39.542Z,100028.22
2022-11-28T14:29:18.770Z,100043.56
2022-11-28T14:32:06.580Z,100030.97
2022-11-28T14:34:41.842Z,100037.78
2022-11-28T14:37:31.451Z,100034.50
2022-11-28T14:39:58.108Z,100039.88
2022-11-28T14:42:59.131Z,100040.81
2022-11-28T14:45:32.577Z,100043.78
2022-11-28T14:48:28.009Z,100017.25
2022-11-28T14:51:00.997Z,100044.81
2022-11-28T14:53:37.054Z,100046.44
2022-11-28T14:56:13.761Z,100047.34
2022-11-28T14:58:47.229Z,100047.22
2022-11-28T15:01:23.054Z,100045.41
2022-11-28T15:03:53.887Z,100053.31
2022-11-28T15:06:24.912Z,100038.47
2022-11-28T15:09:29.188Z,100057.88
2022-11-28T15:12:23.101Z,100035.50
2022-11-28T15:14:56.587Z,100055.34
2022-11-28T15:17:30.644Z,100051.00
2022-11-28T15:20:02.518Z,100034.84
2022-11-28T15:22:41.136Z,100050.44
2022-11-28T15:25:37.506Z,100058.44
2022-11-28T15:28:14.999Z,100028.38
2022-11-28T15:30:51.332Z,100059.34
2022-11-28T15:33:18.741Z,100060.31
2022-11-28T15:35:57.136Z,100061.28
2022-11-28T15:38:24.197Z,100052.47
2022-11-28T15:40:52.683Z,100050.69
2022-11-28T15:43:19.707Z,100054.78
2022-11-28T15:45:58.866Z,100052.81
2022-11-28T15:48:39.323Z,100061.47
2022-11-28T15:51:06.923Z,100059.69
2022-11-28T15:53:33.640Z,100054.59
2022-11-28T15:56:11.361Z,100066.72
2022-11-28T15:58:38.328Z,100062.28
2022-11-28T16:01:15.288Z,100068.34
2022-11-28T16:03:45.747Z,100070.13
2022-11-28T16:06:12.816Z,100069.25
2022-11-28T16:08:46.024Z,100059.81
2022-11-28T16:11:17.542Z,100065.81
2022-11-28T16:13:45.412Z,100061.53
2022-11-28T16:16:18.067Z,100065.00
2022-11-28T16:18:56.246Z,100065.81
2022-11-28T16:21:44.611Z,100067.59
2022-11-28T16:24:30.245Z,100068.41
2022-11-28T16:27:05.462Z,100069.31
2022-11-28T16:29:36.705Z,100057.47
2022-11-28T16:32:21.954Z,100079.88
2022-11-28T16:34:51.141Z,100069.53
2022-11-28T16:37:27.575Z,100069.72
2022-11-28T16:40:10.730Z,100043.03
2022-11-28T16:42:37.330Z,100071.44
2022-11-28T16:45:15.869Z,100069.59
2022-11-28T16:47:43.709Z,100075.66
2022-11-28T16:50:15.602Z,100065.31
2022-11-28T16:52:53.794Z,100072.03
2022-11-28T16:55:33.128Z,100076.22
2022-11-28T16:58:13.191Z,100083.28
2022-11-28T17:00:44.237Z,100089.50
2022-11-28T17:03:43.267Z,100082.56
2022-11-28T17:06:19.280Z,100084.41
2022-11-28T17:08:46.125Z,100081.75
2022-11-28T17:11:15.744Z,100064.75
2022-11-28T17:13:42.886Z,100087.16
2022-11-28T17:16:22.149Z,100068.84
2022-11-28T17:18:49.588Z,100081.97
2022-11-28T17:21:18.962Z,100071.63
2022-11-28T17:23:45.638Z,100087.28
2022-11-28T17:26:12.248Z,100086.50
2022-11-28T17:28:39.083Z,100063.50
2022-11-28T17:31:05.964Z,100088.44
2022-11-28T17:33:32.596Z,100098.06
2022-11-28T17:36:00.123Z,100094.50
2022-11-28T17:38:26.771Z,100090.06
2022-11-28T17:40:53.595Z,100088.34
2022-11-28T17:43:21.960Z,100100.53
2022-11-28T17:45:50.680Z,100087.38
2022-11-28T17:48:18.035Z,100096.94
2022-11-28T17:50:48.051Z,100096.84
2022-11-28T17:53:18.229Z,100060.34
2022-11-28T17:55:47.147Z,100089.50
2022-11-28T17:58:16.244Z,100091.31
2022-11-28T18:00:43.735Z,100062.88
2022-11-28T18:03:10.450Z,100081.91
2022-11-28T18:05:38.761Z,100062.88
2022-11-28T18:08:05.449Z,100087.94
2022-11-28T18:10:32.019Z,100085.41
2022-11-28T18:12:58.608Z,100085.22
2022-11-28T18:15:25.270Z,100089.66
2022-11-28T18:17:52.669Z,100090.38
2022-11-28T18:20:20.084Z,100091.16
2022-11-28T18:22:47.340Z,100091.97
2022-11-28T18:25:14.050Z,100091.22
2022-11-28T18:27:40.821Z,100096.59
2022-11-28T18:30:08.457Z,100085.44
2022-11-28T18:32:35.101Z,100093.41
2022-11-28T18:35:01.672Z,100097.84
2022-11-28T18:37:28.295Z,100092.63
2022-11-28T18:39:54.854Z,100071.28
2022-11-28T18:42:21.545Z,100100.75
2022-11-28T18:44:48.081Z,100092.03
2022-11-28T18:47:14.618Z,100099.03
2022-11-28T18:49:41.358Z,100082.72
2022-11-28T18:52:08.042Z,100089.63
2022-11-28T18:54:34.943Z,100103.38
2022-11-28T18:57:01.528Z,100116.53
2022-11-28T18:59:28.596Z,100106.84
2022-11-28T19:01:55.245Z,100082.00
2022-11-28T19:04:21.912Z,100106.06
2022-11-28T19:06:48.682Z,100104.22
2022-11-28T19:09:17.254Z,100093.03
2022-11-28T19:11:44.833Z,100112.03
2022-11-28T19:14:18.938Z,100115.50
2022-11-28T19:16:46.997Z,100105.09
2022-11-28T19:19:13.663Z,100102.31
2022-11-28T19:21:40.506Z,100102.34
2022-11-28T19:24:08.563Z,100101.53
2022-11-28T19:26:35.864Z,100105.09
2022-11-28T19:29:02.701Z,100116.31
2022-11-28T19:31:32.418Z,100115.47
2022-11-28T19:34:02.125Z,100107.50
2022-11-28T19:36:31.028Z,100106.72
2022-11-28T19:38:58.811Z,100081.84
2022-11-28T19:41:26.770Z,100067.41
2022-11-28T19:43:53.403Z,100101.50
2022-11-28T19:46:20.696Z,100103.22
2022-11-28T19:48:47.485Z,100106.75
2022-11-28T19:51:15.883Z,100114.59
2022-11-28T19:53:43.666Z,100115.50
2022-11-28T19:56:16.387Z,100118.00
2022-11-28T19:58:43.727Z,100121.44
2022-11-28T20:01:16.132Z,100121.44
2022-11-28T20:03:43.560Z,100086.78
2022-11-28T20:06:30.962Z,100114.25
2022-11-28T20:09:15.743Z,100125.66
2022-11-28T20:11:43.746Z,100090.34
2022-11-28T20:14:14.155Z,100121.25
2022-11-28T20:16:40.974Z,100120.31
2022-11-28T20:19:07.843Z,100126.41
2022-11-28T20:21:35.432Z,100122.97
2022-11-28T20:24:05.170Z,100105.09
2022-11-28T20:26:35.147Z,100124.06
2022-11-28T20:29:01.764Z,100111.16
2022-11-28T20:31:31.201Z,100133.44
2022-11-28T20:33:58.545Z,100138.69
2022-11-28T20:36:27.033Z,100136.06
2022-11-28T20:38:54.983Z,100137.75
2022-11-28T20:41:23.152Z,100141.22
2022-11-28T20:43:50.621Z,100142.84
2022-11-28T20:46:27.115Z,100137.59
2022-11-28T20:48:54.356Z,100143.72
2022-11-28T20:51:24.963Z,100145.44
2022-11-28T20:53:52.430Z,100150.56
2022-11-28T20:56:22.215Z,100142.00
2022-11-28T20:58:49.911Z,100147.25
2022-11-28T21:01:19.457Z,100136.72
2022-11-28T21:03:46.577Z,100147.19
2022-11-28T21:06:13.685Z,100147.16
2022-11-28T21:08:40.488Z,100150.56
2022-11-28T21:11:30.501Z,100138.44
2022-11-28T21:13:57.912Z,100146.03
2022-11-28T21:16:31.305Z,100133.19
2022-11-28T21:19:03.175Z,100130.59
2022-11-28T21:21:31.958Z,100145.78
2022-11-28T21:24:11.418Z,100143.16
2022-11-28T21:26:42.388Z,100147.44
2022-11-28T21:29:12.571Z,100152.81
2022-11-28T21:31:44.551Z,100152.88
2022-11-28T21:34:14.462Z,100144.28
2022-11-28T21:36:42.142Z,100152.94
2022-11-28T21:39:12.705Z,100120.94
2022-11-28T21:41:39.314Z,100152.81
2022-11-28T21:44:05.897Z,100129.75
2022-11-28T21:46:32.507Z,100147.66
2022-11-28T21:48:59.028Z,100145.22
2022-11-28T21:51:28.579Z,100147.88
2022-11-28T21:53:57.309Z,100150.50
2022-11-28T21:56:24.431Z,100155.09
2022-11-28T21:58:51.358Z,100149.94
2022-11-28T22:01:18.463Z,100143.91
2022-11-28T22:03:45.162Z,100147.47
2022-11-28T22:06:16.457Z,100144.16
2022-11-28T22:08:43.374Z,100148.59
2022-11-28T22:11:11.338Z,100146.13
2022-11-28T22:13:38.801Z,100130.81
2022-11-28T22:16:12.850Z,100159.47
2022-11-28T22:18:39.649Z,100153.50
2022-11-28T22:21:28.646Z,100161.44
2022-11-28T22:23:55.314Z,100150.19
2022-11-28T22:26:22.132Z,100153.69
2022-11-28T22:28:53.635Z,100159.72
2022-11-28T22:31:20.986Z,100162.50
2022-11-28T22:33:49.909Z,100152.97
2022-11-28T22:36:18.813Z,100166.03
2022-11-28T22:38:46.445Z,100158.19
2022-11-28T22:41:15.468Z,100165.38
2022-11-28T22:43:42.414Z,100142.06
2022-11-28T22:46:10.176Z,100160.22
2022-11-28T22:48:38.534Z,100160.19
2022-11-28T22:51:10.468Z,100150.81
2022-11-28T22:53:37.312Z,100172.53
2022-11-28T22:56:05.450Z,100162.09
2022-11-28T22:58:39.443Z,100169.09
2022-11-28T23:01:13.837Z,100165.38
2022-11-28T23:03:40.845Z,100167.94
2022-11-28T23:06:13.286Z,100168.06
2022-11-28T23:08:39.968Z,100170.72
2022-11-28T23:11:14.934Z,100175.84
2022-11-28T23:13:42.164Z,100159.38
2022-11-28T23:16:14.370Z,100172.19
2022-11-28T23:18:42.019Z,100173.94
2022-11-28T23:21:09.119Z,100175.53
2022-11-28T23:23:36.826Z,100172.91
2022-11-28T23:26:09.545Z,100153.16
2022-11-28T23:28:37.168Z,100183.38
2022-11-28T23:31:10.290Z,100145.47
2022-11-28T23:33:38.075Z,100178.31
2022-11-28T23:36:23.884Z,100169.03
2022-11-28T23:38:53.723Z,100172.47
2022-11-28T23:41:20.403Z,100178.59
2022-11-28T23:43:46.995Z,100176.75
2022-11-28T23:46:15.043Z,100168.19
2022-11-28T23:48:43.686Z,100172.53
2022-11-28T23:51:12.518Z,100170.75
2022-11-28T23:53:40.577Z,100167.16
2022-11-28T23:56:10.350Z,100172.44
2022-11-28T23:58:37.544Z,100174.06
